イースター島 の空港の天気 - METARとTAF

マタベリ国際空港 ( SCIP / IPC ) - チリ イースター島
飛行場実況気象(Metar)
観測時間10/16 02:00 EAST (10/16 07:00 UTC)
風向・風速東南東 6m/s
視程10km以上
天気現象
少しの雲 雲底高度 610m
全天の8割程度の雲 雲底高度 1220m
気温18℃
湿度64%
気圧1027hPa
METARSCIP 160700Z 11011KT 9999 FEW020 BKN040 18/11 Q1027 NOSIG
過去の天気等 Google飛行場航空写真 Wunderground天気予報

過去48時間のMETAR

飛行場予報(TAF)
発表時間: 10/15 23:00 EAST (10/16 04:00 UTC)
予報対象時間: 16日1時 EAST ~ 17日1時 EAST
風向・風速東 4m/s
視程10km以上
少しの雲 雲底高度 610m
全天の4割程度の雲 雲底高度 1220m
16日2時 EAST ~ 16日7時 EAST に一時的に
風向・風速東 5m/s
視程7000m
天気現象弱いしゅう雨
全天の4割程度の雲 雲底高度 760m
全天の8割程度の雲 雲底高度 1520m
16日9時 EAST ~ 16日11時 EAST に徐々に
風向・風速東 7m/s
全天の4割程度の雲 雲底高度 610m
全天の8割程度の雲 雲底高度 1220m
16日15時 EAST ~ 16日19時 EAST に一時的に
風向・風速東 6m/s
視程7000m
天気現象弱いしゅう雨
全天の4割程度の雲 雲底高度 460m
全天の8割程度の雲 雲底高度 1070m
TAF SCIP 160400Z 1606/1706 10008KT 9999 FEW020 SCT040 TN16/1610Z TX22/1620Z
TEMPO 1607/1612 09010KT 7000 -SHRA SCT025 BKN050
BECMG 1614/1616 10013KT SCT020 BKN040
TEMPO 1620/1700 09012KT 7000 -SHRA SCT015 BKN035